Wetterdaten: Woche 03.11.03 - 09.11.03 (KW45)
Datum Zeit Temperatur Luftfeuchte Luftdruck Regenmenge Wind Richtung Taupunkt Windchill
03.11.2003 00:00 2.1 C 96 % 1013.5 hPa 0.0 l/m 0.0 km/h (0 Bft) N 1.6 C 2.1 C
03.11.2003 01:00 2.3 C 97 % 1013.1 hPa 0.0 l/m 0.3 km/h (0 Bft) O-NO 1.8 C 2.2 C
03.11.2003 02:00 2.4 C 99 % 1013.3 hPa 0.0 l/m 1.4 km/h (1 Bft) NO 2.2 C 2.1 C
03.11.2003 03:00 3.2 C 97 % 1013.7 hPa 0.0 l/m 1.8 km/h (1 Bft) SO 2.7 C 2.8 C
03.11.2003 04:00 4.6 C 98 % 1013.9 hPa 0.0 l/m 1.5 km/h (1 Bft) S-SO 4.2 C 4.4 C
03.11.2003 05:00 5.6 C 95 % 1013.9 hPa 0.0 l/m 2.0 km/h (1 Bft) S 4.9 C 5.3 C
03.11.2003 06:00 6.0 C 93 % 1014.1 hPa 0.0 l/m 1.1 km/h (1 Bft) O 4.9 C 5.8 C
03.11.2003 07:00 5.4 C 92 % 1015.0 hPa 0.0 l/m 0.2 km/h (0 Bft) W-NW 4.3 C 5.4 C
03.11.2003 08:00 6.1 C 98 % 1016.0 hPa 1.4 l/m 4.1 km/h (1 Bft) W-NW 5.7 C 5.4 C
03.11.2003 09:00 6.7 C 100 % 1017.0 hPa 0.7 l/m 1.4 km/h (1 Bft) SO 6.6 C 6.5 C
03.11.2003 10:00 7.3 C 99 % 1017.5 hPa 0.4 l/m 1.8 km/h (1 Bft) S-SO 7.2 C 7.2 C
03.11.2003 11:00 7.6 C 98 % 1018.1 hPa 0.4 l/m 3.6 km/h (1 Bft) SW 7.3 C 7.1 C
03.11.2003 12:00 8.3 C 94 % 1018.2 hPa 0.0 l/m 11.2 km/h (2 Bft) W 7.4 C 6.6 C
03.11.2003 13:00 9.0 C 88 % 1018.9 hPa 0.4 l/m 16.7 km/h (3 Bft) S-SW 7.1 C 6.6 C
03.11.2003 14:00 9.8 C 86 % 1019.2 hPa 0.0 l/m 15.5 km/h (3 Bft) S-SO 7.5 C 8.4 C
03.11.2003 15:00 10.2 C 81 % 1020.1 hPa 0.0 l/m 9.3 km/h (2 Bft) SO 7.0 C 9.9 C
03.11.2003 16:00 9.9 C 78 % 1020.8 hPa 0.0 l/m 13.7 km/h (3 Bft) SO 6.2 C 9.1 C
03.11.2003 17:00 9.1 C 84 % 1021.6 hPa 0.0 l/m 14.7 km/h (3 Bft) SO 6.5 C 7.0 C
03.11.2003 18:00 8.4 C 86 % 1022.7 hPa 0.0 l/m 12.5 km/h (3 Bft) SO 6.2 C 6.4 C
03.11.2003 19:00 8.0 C 88 % 1023.5 hPa 0.0 l/m 14.3 km/h (3 Bft) SO 6.1 C 5.7 C
03.11.2003 20:00 7.4 C 88 % 1024.5 hPa 0.0 l/m 5.2 km/h (1 Bft) SO 5.5 C 6.7 C
03.11.2003 21:00 6.5 C 90 % 1025.3 hPa 0.0 l/m 9.0 km/h (2 Bft) O-SO 5.1 C 4.9 C
03.11.2003 22:00 6.1 C 93 % 1026.3 hPa 0.0 l/m 9.8 km/h (2 Bft) O-SO 5.0 C 4.0 C
03.11.2003 23:00 5.6 C 94 % 1026.8 hPa 0.0 l/m 5.2 km/h (1 Bft) O 4.7 C 4.5 C
04.11.2003 00:00 3.7 C 93 % 1027.4 hPa 0.0 l/m 0.0 km/h (0 Bft) N 2.6 C 3.7 C
04.11.2003 01:00 3.3 C 97 % 1027.6 hPa 0.0 l/m 0.3 km/h (0 Bft) O 2.8 C 3.3 C
04.11.2003 02:00 3.6 C 100 % 1028.5 hPa 0.0 l/m 0.0 km/h (0 Bft) N 3.6 C 3.6 C
04.11.2003 03:00 3.7 C 100 % 1028.5 hPa 0.0 l/m 0.3 km/h (0 Bft) O 3.7 C 3.7 C
04.11.2003 04:00 3.6 C 100 % 1028.6 hPa 0.0 l/m 0.1 km/h (0 Bft) N 3.6 C 3.6 C
04.11.2003 05:00 3.4 C 100 % 1029.5 hPa 0.0 l/m 0.0 km/h (0 Bft) N 3.4 C 3.4 C
04.11.2003 06:00 3.2 C 100 % 1029.7 hPa 0.0 l/m 0.1 km/h (0 Bft) N 3.2 C 3.2 C
04.11.2003 07:00 3.2 C 100 % 1030.5 hPa 0.0 l/m 0.8 km/h (0 Bft) N-NO 3.2 C 3.1 C
04.11.2003 08:00 3.0 C 100 % 1031.4 hPa 0.0 l/m 0.5 km/h (0 Bft) N-NO 3.0 C 3.0 C
04.11.2003 09:00 3.5 C 100 % 1031.6 hPa 0.0 l/m 0.9 km/h (0 Bft) N-NO 3.5 C 3.4 C
04.11.2003 10:00 4.0 C 100 % 1031.6 hPa 0.0 l/m 0.6 km/h (0 Bft) N-NO 4.0 C 3.8 C
04.11.2003 11:00 4.8 C 100 % 1031.8 hPa 0.0 l/m 1.4 km/h (1 Bft) N-NO 4.8 C 4.5 C
04.11.2003 12:00 6.3 C 100 % 1031.6 hPa 0.0 l/m 0.5 km/h (0 Bft) N-NO 6.3 C 6.3 C
04.11.2003 13:00 9.2 C 86 % 1031.0 hPa 0.0 l/m 0.0 km/h (0 Bft) N 6.8 C 9.2 C
04.11.2003 14:00 11.6 C 72 % 1030.5 hPa 0.0 l/m 0.4 km/h (0 Bft) N-NO 6.8 C 11.6 C
04.11.2003 15:00 12.4 C 67 % 1030.5 hPa 0.0 l/m 0.7 km/h (0 Bft) N 6.5 C 12.4 C
04.11.2003 16:00 11.3 C 68 % 1030.4 hPa 0.0 l/m 0.0 km/h (0 Bft) N 5.5 C 11.3 C
04.11.2003 17:00 8.6 C 80 % 1030.5 hPa 0.0 l/m 0.0 km/h (0 Bft) N 5.3 C 8.6 C
04.11.2003 18:00 6.3 C 87 % 1031.3 hPa 0.0 l/m 0.5 km/h (0 Bft) N 4.2 C 6.3 C
04.11.2003 19:00 4.9 C 94 % 1031.6 hPa 0.0 l/m 1.1 km/h (0 Bft) N 4.0 C 4.7 C
04.11.2003 20:00 4.2 C 92 % 1032.0 hPa 0.0 l/m 0.2 km/h (0 Bft) N 2.9 C 4.2 C
04.11.2003 21:00 3.3 C 92 % 1032.6 hPa 0.0 l/m 0.0 km/h (0 Bft) N 2.2 C 3.3 C
04.11.2003 22:00 3.1 C 92 % 1032.6 hPa 0.0 l/m 0.3 km/h (0 Bft) N 1.9 C 3.1 C
04.11.2003 23:00 2.9 C 92 % 1032.2 hPa 0.0 l/m 0.0 km/h (0 Bft) N 1.8 C 2.9 C
05.11.2003 00:00 2.5 C 93 % 1031.6 hPa 0.0 l/m 0.0 km/h (0 Bft) N 1.5 C 2.5 C
05.11.2003 01:00 1.4 C 97 % 1031.6 hPa 0.0 l/m 0.0 km/h (0 Bft) N 1.0 C 1.4 C
05.11.2003 02:00 1.0 C 93 % 1031.6 hPa 0.0 l/m 0.8 km/h (0 Bft) O-SO 0.0 C 0.8 C
05.11.2003 03:00 0.6 C 96 % 1031.5 hPa 0.0 l/m 0.7 km/h (0 Bft) O-SO -0.0 C 0.6 C
05.11.2003 04:00 0.2 C 96 % 1030.5 hPa 0.0 l/m 0.4 km/h (0 Bft) O-SO -0.4 C 0.2 C
05.11.2003 05:00 -0.3 C 94 % 1031.3 hPa 0.0 l/m 1.5 km/h (1 Bft) O-SO -1.1 C -0.7 C
05.11.2003 06:00 -0.7 C 95 % 1031.6 hPa 0.0 l/m 0.0 km/h (0 Bft) N -1.5 C -0.7 C
05.11.2003 07:00 -0.3 C 99 % 1031.9 hPa 0.0 l/m 0.0 km/h (0 Bft) N -0.4 C -0.3 C
05.11.2003 08:00 0.2 C 100 % 1032.6 hPa 0.0 l/m 0.3 km/h (0 Bft) SO 0.2 C 0.2 C
05.11.2003 09:00 1.1 C 100 % 1032.6 hPa 0.0 l/m 2.4 km/h (1 Bft) SO 1.1 C 0.6 C
05.11.2003 10:00 2.9 C 100 % 1032.6 hPa 0.0 l/m 7.1 km/h (2 Bft) SO 2.9 C 1.1 C
05.11.2003 11:00 4.2 C 100 % 1032.1 hPa 0.0 l/m 10.3 km/h (2 Bft) SO 4.2 C 1.8 C
05.11.2003 12:00 6.1 C 94 % 1031.5 hPa 0.0 l/m 7.4 km/h (2 Bft) SO 5.3 C 4.7 C
05.11.2003 13:00 8.0 C 82 % 1030.5 hPa 0.0 l/m 9.5 km/h (2 Bft) O-SO 5.2 C 6.4 C
05.11.2003 14:00 9.3 C 76 % 1030.1 hPa 0.0 l/m 6.2 km/h (2 Bft) O-SO 5.3 C 8.7 C
05.11.2003 15:00 10.4 C 57 % 1029.5 hPa 0.0 l/m 13.4 km/h (3 Bft) O-SO 2.2 C 10.4 C
05.11.2003 16:00 9.2 C 63 % 1029.5 hPa 0.0 l/m 4.5 km/h (1 Bft) O-SO 2.5 C 8.8 C
05.11.2003 17:00 6.2 C 77 % 1029.5 hPa 0.0 l/m 0.0 km/h (0 Bft) N 2.3 C 6.2 C
05.11.2003 18:00 4.2 C 85 % 1029.5 hPa 0.0 l/m 0.0 km/h (0 Bft) N 2.0 C 4.2 C
05.11.2003 19:00 3.2 C 92 % 1029.5 hPa 0.0 l/m 0.8 km/h (0 Bft) O-SO 2.0 C 3.1 C
05.11.2003 20:00 2.4 C 93 % 1029.5 hPa 0.0 l/m 0.0 km/h (0 Bft) N 1.4 C 2.4 C
05.11.2003 21:00 1.6 C 90 % 1029.5 hPa 0.0 l/m 0.0 km/h (0 Bft) N 0.2 C 1.6 C
05.11.2003 22:00 0.9 C 91 % 1029.5 hPa 0.0 l/m 0.0 km/h (0 Bft) N -0.4 C 0.9 C
05.11.2003 23:00 0.6 C 93 % 1029.5 hPa 0.0 l/m 2.0 km/h (1 Bft) O -0.4 C 0.3 C
06.11.2003 00:00 1.1 C 94 % 1029.5 hPa 0.0 l/m 0.0 km/h (0 Bft) N 0.2 C 1.1 C
06.11.2003 01:00 1.1 C 98 % 1029.5 hPa 0.0 l/m 2.8 km/h (1 Bft) SO 0.8 C 0.6 C
06.11.2003 02:00 1.0 C 100 % 1029.8 hPa 0.0 l/m 1.0 km/h (0 Bft) SO 1.0 C 0.8 C
06.11.2003 03:00 1.2 C 100 % 1029.8 hPa 0.0 l/m 3.0 km/h (1 Bft) O 1.1 C 0.6 C
06.11.2003 04:00 1.2 C 100 % 1030.5 hPa 0.0 l/m 0.2 km/h (0 Bft) O 1.2 C 1.2 C
06.11.2003 05:00 1.4 C 100 % 1030.6 hPa 0.0 l/m 0.9 km/h (0 Bft) O 1.4 C 1.3 C
06.11.2003 06:00 1.6 C 100 % 1030.6 hPa 0.0 l/m 0.9 km/h (0 Bft) SO 1.6 C 1.4 C
06.11.2003 07:00 2.0 C 100 % 1031.6 hPa 0.0 l/m 0.2 km/h (0 Bft) SO 2.0 C 2.0 C
06.11.2003 08:00 2.1 C 100 % 1031.6 hPa 0.0 l/m 0.3 km/h (0 Bft) S-SW 2.1 C 2.1 C
06.11.2003 09:00 2.3 C 100 % 1031.6 hPa 0.0 l/m 0.1 km/h (0 Bft) S-SW 2.3 C 2.3 C
06.11.2003 10:00 3.2 C 100 % 1031.6 hPa 0.0 l/m 0.0 km/h (0 Bft) N 3.2 C 3.2 C
06.11.2003 11:00 3.8 C 100 % 1030.5 hPa 0.0 l/m 5.6 km/h (1 Bft) O-SO 3.8 C 2.5 C
06.11.2003 12:00 4.4 C 94 % 1030.5 hPa 0.0 l/m 15.6 km/h (3 Bft) O-SO 3.5 C 0.9 C
06.11.2003 13:00 4.7 C 91 % 1029.8 hPa 0.0 l/m 13.7 km/h (3 Bft) O-SO 3.3 C 1.6 C
06.11.2003 14:00 4.8 C 90 % 1029.0 hPa 0.0 l/m 14.4 km/h (3 Bft) O-SO 3.3 C 1.7 C
06.11.2003 15:00 4.8 C 92 % 1028.6 hPa 0.0 l/m 13.8 km/h (3 Bft) O-SO 3.6 C 2.0 C
06.11.2003 16:00 4.7 C 91 % 1028.5 hPa 0.0 l/m 7.5 km/h (2 Bft) O 3.4 C 3.2 C
06.11.2003 17:00 4.6 C 89 % 1028.7 hPa 0.0 l/m 4.6 km/h (1 Bft) O-SO 2.9 C 3.6 C
06.11.2003 18:00 4.1 C 87 % 1028.5 hPa 0.0 l/m 11.1 km/h (2 Bft) O-SO 2.1 C 1.6 C
06.11.2003 19:00 3.6 C 87 % 1028.5 hPa 0.0 l/m 9.3 km/h (2 Bft) O-SO 1.7 C 1.5 C
06.11.2003 20:00 3.0 C 85 % 1028.5 hPa 0.0 l/m 10.0 km/h (2 Bft) O-SO 0.7 C 0.8 C
06.11.2003 21:00 2.4 C 85 % 1027.9 hPa 0.0 l/m 7.3 km/h (2 Bft) O-SO 0.2 C 0.5 C
06.11.2003 22:00 1.5 C 87 % 1027.4 hPa 0.0 l/m 1.8 km/h (1 Bft) O-SO -0.5 C 1.0 C
06.11.2003 23:00 0.9 C 89 % 1027.4 hPa 0.0 l/m 0.0 km/h (0 Bft) N -0.7 C 0.9 C
07.11.2003 00:00 0.6 C 90 % 1026.6 hPa 0.0 l/m 1.8 km/h (1 Bft) NO -0.8 C 0.2 C
07.11.2003 01:00 2.9 C 84 % 1027.0 hPa 0.0 l/m 8.3 km/h (2 Bft) NO 0.5 C 1.0 C
07.11.2003 02:00 2.7 C 74 % 1026.7 hPa 0.0 l/m 4.9 km/h (1 Bft) N-NO -1.5 C 1.5 C
07.11.2003 03:00 3.1 C 72 % 1026.1 hPa 0.0 l/m 7.1 km/h (2 Bft) N-NO -1.4 C 1.4 C
07.11.2003 04:00 3.9 C 69 % 1025.3 hPa 0.0 l/m 7.3 km/h (2 Bft) N -1.3 C 2.4 C
07.11.2003 05:00 4.2 C 66 % 1024.5 hPa 0.0 l/m 14.8 km/h (3 Bft) NO -1.7 C 1.1 C
07.11.2003 06:00 4.1 C 64 % 1023.7 hPa 0.0 l/m 12.3 km/h (3 Bft) NO -2.2 C 1.8 C
07.11.2003 07:00 3.5 C 67 % 1023.3 hPa 0.0 l/m 6.3 km/h (2 Bft) NO -2.1 C 2.1 C
07.11.2003 08:00 4.1 C 66 % 1023.4 hPa 0.0 l/m 5.6 km/h (1 Bft) NO -1.6 C 3.1 C
07.11.2003 09:00 5.4 C 61 % 1024.0 hPa 0.0 l/m 8.8 km/h (2 Bft) NO -1.6 C 3.7 C
07.11.2003 10:00 6.1 C 58 % 1023.7 hPa 0.0 l/m 13.3 km/h (3 Bft) NO -1.6 C 3.5 C
07.11.2003 11:00 7.1 C 54 % 1023.3 hPa 0.0 l/m 22.2 km/h (4 Bft) NO -1.6 C 3.6 C
07.11.2003 12:00 8.2 C 51 % 1022.9 hPa 0.0 l/m 18.1 km/h (3 Bft) NO -1.4 C 5.5 C
07.11.2003 13:00 8.8 C 48 % 1022.4 hPa 0.0 l/m 14.2 km/h (3 Bft) NO -1.7 C 6.8 C
07.11.2003 14:00 8.6 C 48 % 1022.1 hPa 0.0 l/m 14.1 km/h (3 Bft) NO -1.8 C 6.7 C
07.11.2003 15:00 8.4 C 50 % 1021.8 hPa 0.0 l/m 6.7 km/h (2 Bft) O -1.5 C 7.4 C
07.11.2003 16:00 7.6 C 53 % 1021.2 hPa 0.0 l/m 4.2 km/h (1 Bft) NO -1.5 C 7.0 C
07.11.2003 17:00 6.3 C 59 % 1021.2 hPa 0.0 l/m 4.3 km/h (1 Bft) N-NO -1.1 C 5.6 C
07.11.2003 18:00 5.5 C 64 % 1021.2 hPa 0.0 l/m 2.5 km/h (1 Bft) NO -0.8 C 5.1 C
07.11.2003 19:00 4.6 C 68 % 1021.2 hPa 0.0 l/m 2.1 km/h (1 Bft) O -0.8 C 4.3 C
07.11.2003 20:00 3.9 C 73 % 1021.2 hPa 0.0 l/m 1.1 km/h (0 Bft) O -0.5 C 3.6 C
07.11.2003 21:00 3.3 C 76 % 1020.5 hPa 0.0 l/m 0.2 km/h (0 Bft) N -0.4 C 3.3 C
07.11.2003 22:00 3.3 C 77 % 1020.1 hPa 0.0 l/m 2.9 km/h (1 Bft) O-NO -0.3 C 2.7 C
07.11.2003 23:00 2.9 C 78 % 1020.1 hPa 0.0 l/m 2.3 km/h (1 Bft) NO -0.5 C 2.5 C
08.11.2003 00:00 2.5 C 79 % 1020.1 hPa 0.0 l/m 1.8 km/h (1 Bft) N-NO -0.7 C 2.3 C
08.11.2003 01:00 1.8 C 82 % 1020.1 hPa 0.0 l/m 0.2 km/h (0 Bft) N -1.0 C 1.8 C
08.11.2003 02:00 1.5 C 84 % 1020.1 hPa 0.0 l/m 0.3 km/h (0 Bft) NO -1.0 C 1.5 C
08.11.2003 03:00 1.4 C 83 % 1019.4 hPa 0.0 l/m 0.9 km/h (0 Bft) N-NO -1.1 C 1.4 C
08.11.2003 04:00 0.4 C 84 % 1019.1 hPa 0.0 l/m 0.1 km/h (0 Bft) N -1.9 C 0.4 C
08.11.2003 05:00 0.3 C 86 % 1018.8 hPa 0.0 l/m 0.9 km/h (0 Bft) N-NO -1.7 C 0.1 C
08.11.2003 06:00 0.3 C 87 % 1018.1 hPa 0.0 l/m 2.8 km/h (1 Bft) O-SO -1.6 C -0.5 C
08.11.2003 07:00 0.5 C 87 % 1018.1 hPa 0.0 l/m 3.4 km/h (1 Bft) O-SO -1.4 C -0.3 C
08.11.2003 08:00 1.4 C 83 % 1018.1 hPa 0.0 l/m 0.5 km/h (0 Bft) N -1.3 C 1.4 C
08.11.2003 09:00 2.3 C 76 % 1018.1 hPa 0.0 l/m 3.2 km/h (1 Bft) O-SO -1.5 C 1.4 C
08.11.2003 10:00 3.9 C 67 % 1017.9 hPa 0.0 l/m 1.2 km/h (1 Bft) O -1.7 C 3.7 C
08.11.2003 11:00 5.3 C 60 % 1017.2 hPa 0.0 l/m 2.2 km/h (1 Bft) SO -1.8 C 4.9 C
08.11.2003 12:00 6.6 C 56 % 1017.0 hPa 0.0 l/m 1.3 km/h (1 Bft) O-SO -1.6 C 6.4 C
08.11.2003 13:00 7.4 C 52 % 1017.0 hPa 0.0 l/m 0.2 km/h (0 Bft) NO -1.8 C 7.4 C
08.11.2003 14:00 7.2 C 54 % 1017.6 hPa 0.0 l/m 0.5 km/h (0 Bft) NO -1.6 C 7.2 C
08.11.2003 15:00 5.5 C 66 % 1018.1 hPa 0.0 l/m 0.5 km/h (0 Bft) N-NW -0.4 C 5.5 C
08.11.2003 16:00 5.4 C 64 % 1018.2 hPa 0.0 l/m 0.0 km/h (0 Bft) N -0.8 C 5.4 C
08.11.2003 17:00 4.2 C 74 % 1019.1 hPa 0.0 l/m 0.1 km/h (0 Bft) N 0.1 C 4.2 C
08.11.2003 18:00 3.0 C 80 % 1019.9 hPa 0.0 l/m 0.0 km/h (0 Bft) N -0.1 C 3.0 C
08.11.2003 19:00 1.5 C 87 % 1020.4 hPa 0.0 l/m 0.4 km/h (0 Bft) N-NW -0.5 C 1.5 C
08.11.2003 20:00 0.5 C 89 % 1021.2 hPa 0.0 l/m 2.9 km/h (1 Bft) O-SO -1.0 C 0.0 C
08.11.2003 21:00 -0.4 C 89 % 1021.7 hPa 0.0 l/m 1.1 km/h (0 Bft) O-SO -2.1 C -0.6 C
08.11.2003 22:00 -0.8 C 91 % 1022.2 hPa 0.0 l/m 1.6 km/h (1 Bft) O -2.1 C -1.3 C
08.11.2003 23:00 -1.3 C 91 % 1022.6 hPa 0.0 l/m 1.0 km/h (0 Bft) O -2.6 C -1.6 C
09.11.2003 00:00 -1.9 C 90 % 1023.3 hPa 0.0 l/m 0.0 km/h (0 Bft) N -3.3 C -1.9 C
09.11.2003 01:00 -2.1 C 90 % 1023.7 hPa 0.0 l/m 0.0 km/h (0 Bft) N -3.6 C -2.1 C
09.11.2003 02:00 -2.7 C 88 % 1024.2 hPa 0.0 l/m 0.0 km/h (0 Bft) N -4.4 C -2.7 C
09.11.2003 03:00 -2.6 C 89 % 1024.3 hPa 0.0 l/m 0.1 km/h (0 Bft) N -4.3 C -2.6 C
09.11.2003 04:00 -1.9 C 97 % 1024.6 hPa 0.0 l/m 1.3 km/h (1 Bft) O-SO -2.2 C -2.1 C
09.11.2003 05:00 -1.5 C 100 % 1024.4 hPa 0.0 l/m 2.2 km/h (1 Bft) O-SO -1.5 C -2.2 C
09.11.2003 06:00 -1.9 C 97 % 1024.6 hPa 0.0 l/m 5.1 km/h (1 Bft) O-SO -2.2 C -3.4 C
09.11.2003 07:00 -2.0 C 100 % 1025.3 hPa 0.0 l/m 5.9 km/h (2 Bft) O-SO -2.0 C -4.0 C
09.11.2003 08:00 -1.8 C 100 % 1025.3 hPa 0.0 l/m 6.1 km/h (2 Bft) O-SO -1.8 C -3.9 C
09.11.2003 09:00 -0.8 C 100 % 1025.3 hPa 0.0 l/m 4.1 km/h (1 Bft) O-SO -0.8 C -2.0 C
09.11.2003 10:00 -0.1 C 100 % 1025.4 hPa 0.0 l/m 1.3 km/h (1 Bft) O-SO -0.1 C -0.3 C
09.11.2003 11:00 1.1 C 100 % 1025.3 hPa 0.0 l/m 5.9 km/h (2 Bft) O-SO 1.0 C -0.6 C
09.11.2003 12:00 3.0 C 89 % 1025.3 hPa 0.0 l/m 3.3 km/h (1 Bft) O-SO 1.4 C 2.3 C
09.11.2003 13:00 5.2 C 76 % 1024.3 hPa 0.0 l/m 4.8 km/h (1 Bft) O-SO 1.3 C 4.3 C
09.11.2003 14:00 6.2 C 70 % 1024.3 hPa 0.0 l/m 12.7 km/h (3 Bft) SO 1.0 C 3.7 C
09.11.2003 15:00 5.9 C 71 % 1024.3 hPa 0.0 l/m 5.8 km/h (2 Bft) SO 1.1 C 4.9 C
09.11.2003 16:00 4.9 C 77 % 1024.5 hPa 0.0 l/m 2.4 km/h (1 Bft) O-SO 1.3 C 4.6 C
09.11.2003 17:00 3.7 C 85 % 1024.6 hPa 0.0 l/m 7.5 km/h (2 Bft) O-SO 1.3 C 1.8 C
09.11.2003 18:00 3.2 C 87 % 1025.3 hPa 0.0 l/m 10.9 km/h (2 Bft) O-SO 1.3 C 0.4 C
09.11.2003 19:00 2.9 C 88 % 1025.3 hPa 0.0 l/m 11.1 km/h (2 Bft) O-SO 1.1 C -0.0 C
09.11.2003 20:00 2.1 C 88 % 1025.3 hPa 0.0 l/m 1.7 km/h (1 Bft) O-SO 0.3 C 1.8 C
09.11.2003 21:00 1.5 C 93 % 1025.3 hPa 0.0 l/m 1.5 km/h (1 Bft) O 0.4 C 1.2 C
09.11.2003 22:00 1.2 C 92 % 1025.3 hPa 0.0 l/m 0.7 km/h (0 Bft) O 0.1 C 1.1 C
09.11.2003 23:00 0.8 C 93 % 1025.3 hPa 0.0 l/m 0.0 km/h (0 Bft) N -0.1 C 0.8 C
Min-Datum _ 09.11.03 07.11.03 03.11.03 - 03.11.03 - 09.11.03 09.11.03
_ Min-Zeit 02:36 12:59 00:00 - 00:00 - 02:36 08:09
Minimum _ -3.0 C 47 % 1012.8 hPa - 0.0 km/h (0 Bft) - -4.7 C -6.2 C
Max-Datum _ 04.11.03 03.11.03 04.11.03 03.11.03 07.11.03 - 04.11.03 04.11.03
_ Max-Zeit 15:24 00:00 11:21 08:06 11:53 - 13:15 15:24
Maximum _ 12.6 C 100 % 1032.6 hPa 1.4 l/m 36.0 km/h
NO (5 Bft)
- 8.8 C 12.6 C
Durchschnitt _ 3.7 C 86 % 1025.2 hPa #3.2 l/m 3.9 km/h (1 Bft) O-SO 1.4 C 3.0 C

Durchschnitt Minimum Temp.3.1 C
Durchschnitt Maximum Temp.4.3 C
© Kaiko 2003